Foley, Minnesota
Current Conditions -  °F | °C
As of 11:53 PM on Sunday 19 Oct 2014 (Local Time) from KSTC Reporting Station
Clear Clear  
Wind Chill: 52°   Ceiling: Unl
Heat Index: 52°   Visibility: 10mi
Dew Point: 42°   Wind: 8mph
Humidity: 69%   Direction: 310°NW
Pressure: 29.89"   Gusts: NA
Location:  45.66°N, 93.91°W
Report Text: KSTC 200453Z AUTO 31007KT 10SM CLR 11/06 A2989 RMK AO2 SLP130 T01110056
Loading
Personal Weather Stations






























Interactive Weather Map
Tropical Storm Tracking
New forecast layout! Learn more

10-Day Weather Forecast

Advertisements
Track Severe Weather on mobile